sensor_id;sensor_type;location;lat;lon;timestamp;pressure;altitude;pressure_sealevel;temperature;humidity
9335;BME280;4706;41.844;26.082;2023-04-01T00:01:29;100059.25;;;12.33;70.32
9335;BME280;4706;41.844;26.082;2023-04-01T00:03:54;100060.22;;;12.46;69.08
9335;BME280;4706;41.844;26.082;2023-04-01T00:06:21;100066.88;;;12.36;68.42
9335;BME280;4706;41.844;26.082;2023-04-01T00:08:47;100050.53;;;12.23;68.94
9335;BME280;4706;41.844;26.082;2023-04-01T00:11:13;100063.47;;;12.22;69.37
9335;BME280;4706;41.844;26.082;2023-04-01T00:13:39;100057.47;;;12.29;69.42
9335;BME280;4706;41.844;26.082;2023-04-01T00:16:04;100043.38;;;12.39;69.13
9335;BME280;4706;41.844;26.082;2023-04-01T00:18:30;100050.19;;;12.42;69.20
9335;BME280;4706;41.844;26.082;2023-04-01T00:20:56;100044.81;;;12.36;69.25
9335;BME280;4706;41.844;26.082;2023-04-01T00:23:21;100043.38;;;12.39;68.97
9335;BME280;4706;41.844;26.082;2023-04-01T00:25:47;100033.28;;;12.43;68.08
9335;BME280;4706;41.844;26.082;2023-04-01T00:28:18;100038.66;;;12.39;68.19
9335;BME280;4706;41.844;26.082;2023-04-01T00:30:44;100016.94;;;12.38;67.95
9335;BME280;4706;41.844;26.082;2023-04-01T00:33:10;99999.25;;;12.22;68.09
9335;BME280;4706;41.844;26.082;2023-04-01T00:35:35;100013.03;;;12.39;68.03
9335;BME280;4706;41.844;26.082;2023-04-01T00:38:03;100020.03;;;12.19;69.00
9335;BME280;4706;41.844;26.082;2023-04-01T00:40:35;100012.72;;;12.14;69.04
9335;BME280;4706;41.844;26.082;2023-04-01T00:43:02;100001.19;;;12.21;67.68
9335;BME280;4706;41.844;26.082;2023-04-01T00:45:30;100018.25;;;12.23;67.68
9335;BME280;4706;41.844;26.082;2023-04-01T00:47:56;100014.34;;;12.07;68.40
9335;BME280;4706;41.844;26.082;2023-04-01T00:50:24;100002.34;;;11.94;68.64
9335;BME280;4706;41.844;26.082;2023-04-01T00:52:51;99999.91;;;12.01;66.89
9335;BME280;4706;41.844;26.082;2023-04-01T00:55:18;100002.16;;;11.82;67.56
9335;BME280;4706;41.844;26.082;2023-04-01T00:57:45;100000.00;;;11.61;67.79
9335;BME280;4706;41.844;26.082;2023-04-01T01:00:12;100010.72;;;11.72;68.63
9335;BME280;4706;41.844;26.082;2023-04-01T01:02:45;99989.16;;;11.65;68.73
9335;BME280;4706;41.844;26.082;2023-04-01T01:05:15;99984.44;;;11.48;69.29
9335;BME280;4706;41.844;26.082;2023-04-01T01:10:31;99987.88;;;11.62;69.37
9335;BME280;4706;41.844;26.082;2023-04-01T01:16:10;99970.00;;;11.42;68.84
9335;BME280;4706;41.844;26.082;2023-04-01T01:18:50;99975.03;;;11.40;69.52
9335;BME280;4706;41.844;26.082;2023-04-01T01:32:18;99974.41;;;11.61;68.46
9335;BME280;4706;41.844;26.082;2023-04-01T01:34:55;99972.31;;;11.66;68.06
9335;BME280;4706;41.844;26.082;2023-04-01T01:37:25;99974.91;;;11.63;67.53
9335;BME280;4706;41.844;26.082;2023-04-01T01:40:01;99968.91;;;11.61;67.98
9335;BME280;4706;41.844;26.082;2023-04-01T01:42:29;99966.47;;;11.59;68.01
9335;BME280;4706;41.844;26.082;2023-04-01T01:44:57;99970.72;;;11.74;67.81
9335;BME280;4706;41.844;26.082;2023-04-01T01:47:25;99983.66;;;11.65;67.23
9335;BME280;4706;41.844;26.082;2023-04-01T01:49:53;99987.38;;;11.69;67.20
9335;BME280;4706;41.844;26.082;2023-04-01T01:52:21;99950.13;;;11.63;67.08
9335;BME280;4706;41.844;26.082;2023-04-01T01:54:55;99981.06;;;11.68;67.12
9335;BME280;4706;41.844;26.082;2023-04-01T01:57:31;99987.22;;;11.65;66.55
9335;BME280;4706;41.844;26.082;2023-04-01T02:00:04;99980.75;;;11.70;66.83
9335;BME280;4706;41.844;26.082;2023-04-01T02:02:40;99979.63;;;11.71;66.73
9335;BME280;4706;41.844;26.082;2023-04-01T02:05:08;99979.44;;;11.76;66.40
9335;BME280;4706;41.844;26.082;2023-04-01T02:07:37;99979.91;;;11.70;66.42
9335;BME280;4706;41.844;26.082;2023-04-01T02:10:05;99976.69;;;11.67;65.99
9335;BME280;4706;41.844;26.082;2023-04-01T02:12:33;99982.66;;;11.70;66.39
9335;BME280;4706;41.844;26.082;2023-04-01T02:15:04;99987.84;;;11.54;66.95
9335;BME280;4706;41.844;26.082;2023-04-01T02:17:33;99974.22;;;11.40;67.06
9335;BME280;4706;41.844;26.082;2023-04-01T02:20:02;99966.91;;;11.35;67.71
9335;BME280;4706;41.844;26.082;2023-04-01T02:22:33;99984.56;;;11.43;67.92
9335;BME280;4706;41.844;26.082;2023-04-01T02:25:03;99991.22;;;11.42;67.74
9335;BME280;4706;41.844;26.082;2023-04-01T02:27:30;99964.94;;;11.27;67.62
9335;BME280;4706;41.844;26.082;2023-04-01T02:29:56;99999.34;;;11.47;67.94
9335;BME280;4706;41.844;26.082;2023-04-01T02:32:23;99998.69;;;11.50;67.89
9335;BME280;4706;41.844;26.082;2023-04-01T02:34:51;100004.03;;;11.47;68.20
9335;BME280;4706;41.844;26.082;2023-04-01T02:37:17;100000.00;;;11.44;68.26
9335;BME280;4706;41.844;26.082;2023-04-01T02:39:43;100008.09;;;11.49;68.42
9335;BME280;4706;41.844;26.082;2023-04-01T02:42:09;99996.91;;;11.54;68.03
9335;BME280;4706;41.844;26.082;2023-04-01T02:44:35;99975.84;;;11.41;68.83
9335;BME280;4706;41.844;26.082;2023-04-01T02:47:01;99970.34;;;11.41;68.83
9335;BME280;4706;41.844;26.082;2023-04-01T02:49:26;99968.69;;;11.31;69.19
9335;BME280;4706;41.844;26.082;2023-04-01T02:51:52;99968.56;;;11.36;69.47
9335;BME280;4706;41.844;26.082;2023-04-01T02:54:18;99971.78;;;11.38;69.27
9335;BME280;4706;41.844;26.082;2023-04-01T02:56:44;99961.91;;;11.29;69.00
9335;BME280;4706;41.844;26.082;2023-04-01T02:59:10;99955.25;;;11.38;68.84
9335;BME280;4706;41.844;26.082;2023-04-01T03:01:37;99954.94;;;11.40;69.38
9335;BME280;4706;41.844;26.082;2023-04-01T03:04:03;99960.81;;;11.47;68.81
9335;BME280;4706;41.844;26.082;2023-04-01T03:06:28;99938.56;;;11.35;69.41
9335;BME280;4706;41.844;26.082;2023-04-01T03:08:54;99936.44;;;11.14;70.16
9335;BME280;4706;41.844;26.082;2023-04-01T03:11:19;99942.38;;;10.99;70.28
9335;BME280;4706;41.844;26.082;2023-04-01T03:13:46;99938.81;;;10.99;70.47
9335;BME280;4706;41.844;26.082;2023-04-01T03:16:12;99932.19;;;11.08;70.01
9335;BME280;4706;41.844;26.082;2023-04-01T03:18:38;99927.84;;;11.07;69.96
9335;BME280;4706;41.844;26.082;2023-04-01T03:21:32;99926.06;;;11.11;69.36
9335;BME280;4706;41.844;26.082;2023-04-01T03:23:58;99925.09;;;11.07;69.36
9335;BME280;4706;41.844;26.082;2023-04-01T03:26:24;99934.03;;;11.22;68.90
9335;BME280;4706;41.844;26.082;2023-04-01T03:28:52;99935.63;;;11.23;68.49
9335;BME280;4706;41.844;26.082;2023-04-01T03:31:18;99929.31;;;11.22;68.66
9335;BME280;4706;41.844;26.082;2023-04-01T03:33:43;99917.66;;;11.16;68.56
9335;BME280;4706;41.844;26.082;2023-04-01T03:36:09;99917.34;;;11.18;68.64
9335;BME280;4706;41.844;26.082;2023-04-01T03:38:36;99911.19;;;11.30;68.22
9335;BME280;4706;41.844;26.082;2023-04-01T03:41:02;99917.69;;;11.34;68.31
9335;BME280;4706;41.844;26.082;2023-04-01T03:43:28;99926.44;;;11.36;68.23
9335;BME280;4706;41.844;26.082;2023-04-01T03:45:54;99914.28;;;11.37;68.31
9335;BME280;4706;41.844;26.082;2023-04-01T03:48:22;99913.16;;;11.38;68.26
9335;BME280;4706;41.844;26.082;2023-04-01T03:50:48;99904.09;;;11.37;67.98
9335;BME280;4706;41.844;26.082;2023-04-01T03:53:14;99909.91;;;11.27;68.35
9335;BME280;4706;41.844;26.082;2023-04-01T03:55:40;99909.09;;;11.18;68.84
9335;BME280;4706;41.844;26.082;2023-04-01T03:58:07;99924.63;;;11.14;69.18
9335;BME280;4706;41.844;26.082;2023-04-01T04:00:33;99913.44;;;11.19;69.04
9335;BME280;4706;41.844;26.082;2023-04-01T04:02:59;99920.91;;;11.18;69.63
9335;BME280;4706;41.844;26.082;2023-04-01T04:05:25;99913.94;;;11.21;69.88
9335;BME280;4706;41.844;26.082;2023-04-01T04:07:52;99903.75;;;11.30;69.84
9335;BME280;4706;41.844;26.082;2023-04-01T04:10:18;99902.94;;;11.30;69.57
9335;BME280;4706;41.844;26.082;2023-04-01T04:12:43;99902.31;;;11.41;69.64
9335;BME280;4706;41.844;26.082;2023-04-01T04:15:10;99912.84;;;11.48;69.38
9335;BME280;4706;41.844;26.082;2023-04-01T04:17:35;99914.47;;;11.40;69.31
9335;BME280;4706;41.844;26.082;2023-04-01T04:20:02;99891.75;;;11.26;69.76
9335;BME280;4706;41.844;26.082;2023-04-01T04:22:28;99909.41;;;11.42;69.94
9335;BME280;4706;41.844;26.082;2023-04-01T04:24:53;99904.88;;;11.38;69.83
9335;BME280;4706;41.844;26.082;2023-04-01T04:27:19;99922.84;;;11.27;70.44
9335;BME280;4706;41.844;26.082;2023-04-01T04:29:44;99913.28;;;11.15;71.25
9335;BME280;4706;41.844;26.082;2023-04-01T04:32:10;99914.59;;;11.18;71.38
9335;BME280;4706;41.844;26.082;2023-04-01T04:34:36;99897.41;;;11.12;71.67
9335;BME280;4706;41.844;26.082;2023-04-01T04:37:02;99909.03;;;11.01;72.88
9335;BME280;4706;41.844;26.082;2023-04-01T04:39:28;99908.72;;;11.02;73.15
9335;BME280;4706;41.844;26.082;2023-04-01T04:41:53;99925.25;;;11.11;73.09
9335;BME280;4706;41.844;26.082;2023-04-01T04:44:19;99907.59;;;11.21;72.70
9335;BME280;4706;41.844;26.082;2023-04-01T04:46:45;99907.97;;;11.36;72.69
9335;BME280;4706;41.844;26.082;2023-04-01T04:49:10;99919.31;;;11.43;72.29
9335;BME280;4706;41.844;26.082;2023-04-01T04:51:36;99910.72;;;11.54;71.55
9335;BME280;4706;41.844;26.082;2023-04-01T04:54:03;99914.31;;;11.63;71.67
9335;BME280;4706;41.844;26.082;2023-04-01T04:56:28;99906.22;;;11.66;71.74
9335;BME280;4706;41.844;26.082;2023-04-01T04:58:54;99899.56;;;11.67;71.33
9335;BME280;4706;41.844;26.082;2023-04-01T05:01:20;99903.78;;;11.91;71.17
9335;BME280;4706;41.844;26.082;2023-04-01T05:03:46;99900.06;;;11.78;71.75
9335;BME280;4706;41.844;26.082;2023-04-01T05:06:14;99906.19;;;11.75;72.04
9335;BME280;4706;41.844;26.082;2023-04-01T05:08:40;99906.03;;;11.80;72.01
9335;BME280;4706;41.844;26.082;2023-04-01T05:11:10;99907.66;;;11.99;71.54
9335;BME280;4706;41.844;26.082;2023-04-01T05:13:37;99899.41;;;11.90;71.29
9335;BME280;4706;41.844;26.082;2023-04-01T05:16:02;99882.84;;;11.99;71.51
9335;BME280;4706;41.844;26.082;2023-04-01T05:18:27;99881.41;;;12.01;71.10
9335;BME280;4706;41.844;26.082;2023-04-01T05:20:54;99880.75;;;12.04;71.36
9335;BME280;4706;41.844;26.082;2023-04-01T05:23:21;99885.91;;;12.14;71.38
9335;BME280;4706;41.844;26.082;2023-04-01T05:25:48;99882.03;;;12.07;71.53
9335;BME280;4706;41.844;26.082;2023-04-01T05:28:14;99884.13;;;12.19;72.00
9335;BME280;4706;41.844;26.082;2023-04-01T05:30:40;99878.25;;;12.29;72.38
9335;BME280;4706;41.844;26.082;2023-04-01T05:33:07;99878.19;;;12.46;72.18
9335;BME280;4706;41.844;26.082;2023-04-01T05:35:33;99881.81;;;12.38;72.19
9335;BME280;4706;41.844;26.082;2023-04-01T05:37:58;99883.06;;;12.49;72.48
9335;BME280;4706;41.844;26.082;2023-04-01T05:40:24;99869.16;;;12.75;72.79
9335;BME280;4706;41.844;26.082;2023-04-01T05:42:50;99873.19;;;13.07;72.44
9335;BME280;4706;41.844;26.082;2023-04-01T05:45:15;99879.72;;;13.32;71.55
9335;BME280;4706;41.844;26.082;2023-04-01T05:47:41;99873.22;;;13.49;71.04
9335;BME280;4706;41.844;26.082;2023-04-01T05:50:09;99854.16;;;13.56;70.80
9335;BME280;4706;41.844;26.082;2023-04-01T05:52:36;99861.28;;;13.57;71.01
9335;BME280;4706;41.844;26.082;2023-04-01T05:55:02;99853.34;;;13.35;71.99
9335;BME280;4706;41.844;26.082;2023-04-01T05:57:28;99862.19;;;13.49;71.54
9335;BME280;4706;41.844;26.082;2023-04-01T05:59:53;99861.63;;;13.56;71.29
9335;BME280;4706;41.844;26.082;2023-04-01T06:02:19;99862.78;;;13.55;72.03
9335;BME280;4706;41.844;26.082;2023-04-01T06:04:45;99864.03;;;13.78;72.65
9335;BME280;4706;41.844;26.082;2023-04-01T06:07:16;99869.34;;;13.83;72.40
9335;BME280;4706;41.844;26.082;2023-04-01T06:09:43;99865.88;;;13.74;73.19
9335;BME280;4706;41.844;26.082;2023-04-01T06:12:39;99873.53;;;13.69;74.32
9335;BME280;4706;41.844;26.082;2023-04-01T06:15:25;99877.56;;;13.92;74.22
9335;BME280;4706;41.844;26.082;2023-04-01T06:35:11;99852.66;;;15.76;68.55
9335;BME280;4706;41.844;26.082;2023-04-01T06:48:14;99854.94;;;14.93;76.44
9335;BME280;4706;41.844;26.082;2023-04-01T06:53:45;99857.91;;;15.13;76.13
9335;BME280;4706;41.844;26.082;2023-04-01T06:56:18;99850.72;;;15.12;76.52
9335;BME280;4706;41.844;26.082;2023-04-01T07:01:39;99838.53;;;15.41;75.84
9335;BME280;4706;41.844;26.082;2023-04-01T07:04:30;99836.56;;;15.53;75.72
9335;BME280;4706;41.844;26.082;2023-04-01T07:07:04;99816.97;;;15.34;77.21
9335;BME280;4706;41.844;26.082;2023-04-01T07:09:38;99812.63;;;15.21;78.25
9335;BME280;4706;41.844;26.082;2023-04-01T07:15:15;99814.28;;;15.50;76.68
9335;BME280;4706;41.844;26.082;2023-04-01T07:17:43;99806.16;;;15.57;77.07
9335;BME280;4706;41.844;26.082;2023-04-01T07:20:28;99797.56;;;15.74;76.96
9335;BME280;4706;41.844;26.082;2023-04-01T07:23:00;99798.13;;;15.96;76.64
9335;BME280;4706;41.844;26.082;2023-04-01T07:25:31;99798.94;;;15.96;77.37
9335;BME280;4706;41.844;26.082;2023-04-01T07:28:04;99790.00;;;15.87;78.28
9335;BME280;4706;41.844;26.082;2023-04-01T07:33:39;99778.72;;;16.59;77.19
9335;BME280;4706;41.844;26.082;2023-04-01T07:36:20;99784.13;;;16.87;76.36
9335;BME280;4706;41.844;26.082;2023-04-01T07:44:38;99770.50;;;17.17;75.65
9335;BME280;4706;41.844;26.082;2023-04-01T07:52:38;99759.00;;;17.58;72.42
9335;BME280;4706;41.844;26.082;2023-04-01T07:55:15;99759.38;;;17.76;71.19
9335;BME280;4706;41.844;26.082;2023-04-01T08:06:00;99738.41;;;18.05;70.34
9335;BME280;4706;41.844;26.082;2023-04-01T08:14:21;99711.22;;;18.17;70.00
9335;BME280;4706;41.844;26.082;2023-04-01T08:17:12;99693.28;;;18.15;69.71
9335;BME280;4706;41.844;26.082;2023-04-01T08:23:21;99698.13;;;18.71;67.63
9335;BME280;4706;41.844;26.082;2023-04-01T08:25:25;99679.75;;;18.97;66.52
9335;BME280;4706;41.844;26.082;2023-04-01T08:33:19;99682.22;;;20.24;62.39
9335;BME280;4706;41.844;26.082;2023-04-01T08:36:13;99667.91;;;20.33;61.73
9335;BME280;4706;41.844;26.082;2023-04-01T08:38:53;99643.84;;;20.14;61.87
9335;BME280;4706;41.844;26.082;2023-04-01T09:27:33;99628.44;;;21.18;52.87
9335;BME280;4706;41.844;26.082;2023-04-01T09:33:17;99611.22;;;21.13;52.91
9335;BME280;4706;41.844;26.082;2023-04-01T09:38:57;99596.88;;;21.14;52.52
9335;BME280;4706;41.844;26.082;2023-04-01T09:41:32;99590.47;;;21.21;53.77
9335;BME280;4706;41.844;26.082;2023-04-01T09:44:15;99591.69;;;21.23;53.50
9335;BME280;4706;41.844;26.082;2023-04-01T09:55:42;99565.63;;;20.80;55.35
9335;BME280;4706;41.844;26.082;2023-04-01T09:58:55;99553.59;;;20.65;56.53
9335;BME280;4706;41.844;26.082;2023-04-01T10:01:20;99552.03;;;20.75;55.60
9335;BME280;4706;41.844;26.082;2023-04-01T10:17:41;99546.13;;;21.26;50.46
9335;BME280;4706;41.844;26.082;2023-04-01T10:23:24;99534.53;;;21.14;50.23
9335;BME280;4706;41.844;26.082;2023-04-01T10:35:03;99527.69;;;20.82;52.49
9335;BME280;4706;41.844;26.082;2023-04-01T10:46:16;99513.66;;;20.65;53.88
9335;BME280;4706;41.844;26.082;2023-04-01T11:11:41;99506.59;;;19.98;54.03
9335;BME280;4706;41.844;26.082;2023-04-01T11:22:26;99480.38;;;20.17;54.10
9335;BME280;4706;41.844;26.082;2023-04-01T11:36:22;99481.63;;;20.41;54.50
9335;BME280;4706;41.844;26.082;2023-04-01T11:39:19;99481.66;;;20.48;54.08
9335;BME280;4706;41.844;26.082;2023-04-01T11:44:19;99468.13;;;20.53;53.54
9335;BME280;4706;41.844;26.082;2023-04-01T11:49:40;99450.94;;;20.48;53.50
9335;BME280;4706;41.844;26.082;2023-04-01T12:03:37;99420.59;;;20.39;51.45
9335;BME280;4706;41.844;26.082;2023-04-01T12:15:05;99394.19;;;20.11;51.15
9335;BME280;4706;41.844;26.082;2023-04-01T12:17:46;99375.06;;;20.10;51.54
9335;BME280;4706;41.844;26.082;2023-04-01T12:20:42;99348.34;;;20.05;50.49
9335;BME280;4706;41.844;26.082;2023-04-01T12:31:45;99351.91;;;20.02;50.11
9335;BME280;4706;41.844;26.082;2023-04-01T12:47:49;99320.03;;;20.18;51.67
9335;BME280;4706;41.844;26.082;2023-04-01T12:55:48;99316.81;;;20.16;48.54
9335;BME280;4706;41.844;26.082;2023-04-01T13:06:13;99304.91;;;20.33;49.76
9335;BME280;4706;41.844;26.082;2023-04-01T13:14:13;99320.50;;;20.91;48.55
9335;BME280;4706;41.844;26.082;2023-04-01T13:17:26;99314.84;;;21.20;48.75
9335;BME280;4706;41.844;26.082;2023-04-01T13:22:41;99329.59;;;21.42;47.23
9335;BME280;4706;41.844;26.082;2023-04-01T13:25:25;99313.16;;;21.47;46.13
9335;BME280;4706;41.844;26.082;2023-04-01T13:28:20;99332.72;;;21.58;46.55
9335;BME280;4706;41.844;26.082;2023-04-01T13:42:01;99298.28;;;21.75;45.50
9335;BME280;4706;41.844;26.082;2023-04-01T13:44:37;99304.63;;;21.87;45.13
9335;BME280;4706;41.844;26.082;2023-04-01T13:50:26;99293.13;;;21.67;45.41
9335;BME280;4706;41.844;26.082;2023-04-01T14:23:37;99181.16;;;20.82;48.28
9335;BME280;4706;41.844;26.082;2023-04-01T14:35:05;99181.25;;;20.54;48.28
9335;BME280;4706;41.844;26.082;2023-04-01T14:38:04;99173.66;;;20.47;48.97
9335;BME280;4706;41.844;26.082;2023-04-01T14:43:52;99173.66;;;20.47;47.74
9335;BME280;4706;41.844;26.082;2023-04-01T14:49:42;99178.81;;;20.45;47.42
9335;BME280;4706;41.844;26.082;2023-04-01T14:52:16;99174.84;;;20.46;48.14
9335;BME280;4706;41.844;26.082;2023-04-01T14:54:48;99160.88;;;20.53;47.97
9335;BME280;4706;41.844;26.082;2023-04-01T14:57:16;99169.25;;;20.57;48.13
9335;BME280;4706;41.844;26.082;2023-04-01T15:00:13;99163.66;;;20.57;47.68
9335;BME280;4706;41.844;26.082;2023-04-01T15:05:32;99164.88;;;20.56;47.88
9335;BME280;4706;41.844;26.082;2023-04-01T15:13:44;99194.78;;;20.45;47.78
9335;BME280;4706;41.844;26.082;2023-04-01T15:16:45;99196.78;;;20.41;47.93
9335;BME280;4706;41.844;26.082;2023-04-01T15:19:37;99203.97;;;20.38;48.07
9335;BME280;4706;41.844;26.082;2023-04-01T15:22:18;99222.72;;;20.37;48.45
9335;BME280;4706;41.844;26.082;2023-04-01T15:36:16;99279.75;;;20.26;50.60
9335;BME280;4706;41.844;26.082;2023-04-01T15:46:57;99330.69;;;19.76;53.39
9335;BME280;4706;41.844;26.082;2023-04-01T15:49:36;99351.75;;;19.67;53.69
9335;BME280;4706;41.844;26.082;2023-04-01T15:52:48;99350.88;;;19.52;54.16
9335;BME280;4706;41.844;26.082;2023-04-01T15:54:52;99359.56;;;19.39;55.02
9335;BME280;4706;41.844;26.082;2023-04-01T16:00:28;99365.44;;;19.20;56.23
9335;BME280;4706;41.844;26.082;2023-04-01T16:06:02;99370.97;;;19.16;57.33
9335;BME280;4706;41.844;26.082;2023-04-01T16:23:01;99389.94;;;18.93;57.64
9335;BME280;4706;41.844;26.082;2023-04-01T16:25:40;99396.66;;;18.88;60.94
9335;BME280;4706;41.844;26.082;2023-04-01T16:28:24;99396.09;;;18.72;63.25
9335;BME280;4706;41.844;26.082;2023-04-01T16:31:06;99407.69;;;18.74;61.60
9335;BME280;4706;41.844;26.082;2023-04-01T16:33:47;99405.66;;;18.71;62.36
9335;BME280;4706;41.844;26.082;2023-04-01T16:36:35;99415.31;;;18.43;63.25
9335;BME280;4706;41.844;26.082;2023-04-01T16:42:09;99419.13;;;18.28;64.91
9335;BME280;4706;41.844;26.082;2023-04-01T16:47:21;99421.34;;;18.15;66.05
9335;BME280;4706;41.844;26.082;2023-04-01T16:49:56;99425.19;;;18.04;67.93
9335;BME280;4706;41.844;26.082;2023-04-01T16:52:40;99425.72;;;18.16;66.85
9335;BME280;4706;41.844;26.082;2023-04-01T16:55:16;99427.81;;;18.23;67.12
9335;BME280;4706;41.844;26.082;2023-04-01T16:57:55;99435.25;;;18.15;68.42
9335;BME280;4706;41.844;26.082;2023-04-01T17:00:36;99434.88;;;18.13;68.29
9335;BME280;4706;41.844;26.082;2023-04-01T17:08:48;99440.84;;;17.85;70.14
9335;BME280;4706;41.844;26.082;2023-04-01T17:11:24;99442.69;;;18.04;69.50
9335;BME280;4706;41.844;26.082;2023-04-01T17:14:21;99446.38;;;17.82;70.84
9335;BME280;4706;41.844;26.082;2023-04-01T17:19:53;99440.91;;;17.62;73.52
9335;BME280;4706;41.844;26.082;2023-04-01T17:31:02;99434.28;;;17.44;77.11
9335;BME280;4706;41.844;26.082;2023-04-01T17:36:14;99420.44;;;16.94;78.51
9335;BME280;4706;41.844;26.082;2023-04-01T17:41:28;99403.16;;;16.82;78.18
9335;BME280;4706;41.844;26.082;2023-04-01T17:47:06;99423.19;;;17.17;76.88
9335;BME280;4706;41.844;26.082;2023-04-01T17:49:41;99419.88;;;17.08;77.12
9335;BME280;4706;41.844;26.082;2023-04-01T18:05:26;99477.81;;;16.44;82.90
9335;BME280;4706;41.844;26.082;2023-04-01T18:08:32;99486.13;;;16.64;82.51
9335;BME280;4706;41.844;26.082;2023-04-01T18:22:20;99532.59;;;16.67;81.94
9335;BME280;4706;41.844;26.082;2023-04-01T18:25:17;99552.69;;;16.80;82.09
9335;BME280;4706;41.844;26.082;2023-04-01T18:27:48;99552.44;;;16.88;80.90
9335;BME280;4706;41.844;26.082;2023-04-01T18:30:32;99549.38;;;16.93;80.95
9335;BME280;4706;41.844;26.082;2023-04-01T18:33:19;99558.50;;;16.94;81.20
9335;BME280;4706;41.844;26.082;2023-04-01T18:36:33;99568.16;;;17.00;81.18
9335;BME280;4706;41.844;26.082;2023-04-01T18:39:22;99556.53;;;16.94;81.50
9335;BME280;4706;41.844;26.082;2023-04-01T18:47:07;99567.19;;;16.92;81.86
9335;BME280;4706;41.844;26.082;2023-04-01T18:49:56;99578.03;;;16.97;81.16
9335;BME280;4706;41.844;26.082;2023-04-01T18:52:42;99586.84;;;17.03;80.56
9335;BME280;4706;41.844;26.082;2023-04-01T18:55:30;99585.44;;;17.13;80.64
9335;BME280;4706;41.844;26.082;2023-04-01T19:00:42;99581.34;;;17.07;80.83
9335;BME280;4706;41.844;26.082;2023-04-01T19:05:52;99582.91;;;16.65;84.73
9335;BME280;4706;41.844;26.082;2023-04-01T19:08:31;99591.69;;;16.67;85.03
9335;BME280;4706;41.844;26.082;2023-04-01T19:11:07;99598.09;;;16.71;85.99
9335;BME280;4706;41.844;26.082;2023-04-01T19:14:12;99581.66;;;16.43;86.89
9335;BME280;4706;41.844;26.082;2023-04-01T19:17:04;99556.81;;;16.50;86.84
9335;BME280;4706;41.844;26.082;2023-04-01T19:27:52;99598.72;;;15.91;93.46
9335;BME280;4706;41.844;26.082;2023-04-01T19:30:45;99611.06;;;15.93;93.39
9335;BME280;4706;41.844;26.082;2023-04-01T19:33:37;99605.59;;;15.97;93.10
9335;BME280;4706;41.844;26.082;2023-04-01T19:38:52;99618.72;;;16.16;93.24
9335;BME280;4706;41.844;26.082;2023-04-01T19:41:30;99616.81;;;16.20;92.31
9335;BME280;4706;41.844;26.082;2023-04-01T19:50:03;99623.56;;;16.38;90.85
9335;BME280;4706;41.844;26.082;2023-04-01T19:52:40;99595.09;;;16.41;90.11
9335;BME280;4706;41.844;26.082;2023-04-01T19:55:20;99605.56;;;16.48;88.50
9335;BME280;4706;41.844;26.082;2023-04-01T19:58:05;99610.72;;;16.49;88.73
9335;BME280;4706;41.844;26.082;2023-04-01T20:13:22;99632.16;;;15.98;92.45
9335;BME280;4706;41.844;26.082;2023-04-01T20:16:06;99626.00;;;16.05;92.13
9335;BME280;4706;41.844;26.082;2023-04-01T20:18:57;99616.47;;;16.21;89.86
9335;BME280;4706;41.844;26.082;2023-04-01T20:23:59;99617.16;;;15.83;92.45
9335;BME280;4706;41.844;26.082;2023-04-01T20:26:49;99634.72;;;15.87;91.40
9335;BME280;4706;41.844;26.082;2023-04-01T20:32:13;99622.34;;;15.85;92.43
9335;BME280;4706;41.844;26.082;2023-04-01T20:37:49;99629.59;;;15.89;92.00
9335;BME280;4706;41.844;26.082;2023-04-01T20:40:27;99629.53;;;15.70;92.79
9335;BME280;4706;41.844;26.082;2023-04-01T20:45:51;99626.16;;;15.48;93.49
9335;BME280;4706;41.844;26.082;2023-04-01T20:53:42;99636.34;;;15.60;92.12
9335;BME280;4706;41.844;26.082;2023-04-01T21:10:18;99639.72;;;15.22;93.14
9335;BME280;4706;41.844;26.082;2023-04-01T21:13:09;99639.09;;;15.13;92.93
9335;BME280;4706;41.844;26.082;2023-04-01T21:15:45;99645.66;;;15.08;94.50
9335;BME280;4706;41.844;26.082;2023-04-01T21:29:20;99682.63;;;15.28;91.75
9335;BME280;4706;41.844;26.082;2023-04-01T21:34:42;99687.66;;;15.38;85.54
9335;BME280;4706;41.844;26.082;2023-04-01T21:48:44;99705.13;;;15.26;75.75
9335;BME280;4706;41.844;26.082;2023-04-01T22:02:46;99714.31;;;14.87;70.84
9335;BME280;4706;41.844;26.082;2023-04-01T22:10:57;99722.09;;;14.97;69.67
9335;BME280;4706;41.844;26.082;2023-04-01T22:13:46;99732.63;;;14.91;69.66
9335;BME280;4706;41.844;26.082;2023-04-01T22:16:25;99729.81;;;15.03;70.04
9335;BME280;4706;41.844;26.082;2023-04-01T22:19:04;99736.50;;;15.02;68.69
9335;BME280;4706;41.844;26.082;2023-04-01T22:24:53;99747.63;;;14.90;69.46
9335;BME280;4706;41.844;26.082;2023-04-01T22:30:22;99761.34;;;14.99;66.29
9335;BME280;4706;41.844;26.082;2023-04-01T22:32:50;99764.69;;;14.92;67.30
9335;BME280;4706;41.844;26.082;2023-04-01T22:35:23;99769.44;;;14.79;68.45
9335;BME280;4706;41.844;26.082;2023-04-01T22:43:15;99770.72;;;14.70;68.79
9335;BME280;4706;41.844;26.082;2023-04-01T22:48:30;99770.84;;;14.61;65.25
9335;BME280;4706;41.844;26.082;2023-04-01T22:56:21;99768.06;;;14.37;64.88
9335;BME280;4706;41.844;26.082;2023-04-01T22:59:02;99764.50;;;14.24;64.25
9335;BME280;4706;41.844;26.082;2023-04-01T23:01:33;99773.81;;;14.19;65.52
9335;BME280;4706;41.844;26.082;2023-04-01T23:04:04;99783.06;;;14.23;65.13
9335;BME280;4706;41.844;26.082;2023-04-01T23:06:38;99785.94;;;14.27;63.57
9335;BME280;4706;41.844;26.082;2023-04-01T23:09:28;99785.81;;;14.23;64.39
9335;BME280;4706;41.844;26.082;2023-04-01T23:11:58;99793.88;;;14.28;65.42
9335;BME280;4706;41.844;26.082;2023-04-01T23:22:52;99779.25;;;14.16;63.09
9335;BME280;4706;41.844;26.082;2023-04-01T23:27:54;99781.88;;;14.00;65.19
9335;BME280;4706;41.844;26.082;2023-04-01T23:36:13;99786.81;;;14.06;65.10
9335;BME280;4706;41.844;26.082;2023-04-01T23:38:41;99782.13;;;14.07;64.77
9335;BME280;4706;41.844;26.082;2023-04-01T23:41:09;99787.97;;;14.05;63.25
9335;BME280;4706;41.844;26.082;2023-04-01T23:43:43;99794.84;;;13.87;63.90
9335;BME280;4706;41.844;26.082;2023-04-01T23:46:12;99785.63;;;13.83;64.64
9335;BME280;4706;41.844;26.082;2023-04-01T23:48:44;99784.44;;;13.72;64.60
9335;BME280;4706;41.844;26.082;2023-04-01T23:51:17;99807.28;;;13.81;64.44
9335;BME280;4706;41.844;26.082;2023-04-01T23:53:45;99809.56;;;13.79;65.67